sensor_id;sensor_type;location;lat;lon;timestamp;temperature;humidity
34099;DHT22;20374;49.474;10.944;2024-02-23T00:00:49;9.00;99.90
34099;DHT22;20374;49.474;10.944;2024-02-23T00:03:15;9.00;99.90
34099;DHT22;20374;49.474;10.944;2024-02-23T00:05:41;9.10;99.90
34099;DHT22;20374;49.474;10.944;2024-02-23T00:08:08;9.10;99.90
34099;DHT22;20374;49.474;10.944;2024-02-23T00:10:34;9.10;99.90
34099;DHT22;20374;49.474;10.944;2024-02-23T00:13:01;9.10;99.90
34099;DHT22;20374;49.474;10.944;2024-02-23T00:15:26;9.10;99.90
34099;DHT22;20374;49.474;10.944;2024-02-23T00:17:52;9.00;99.90
34099;DHT22;20374;49.474;10.944;2024-02-23T00:20:18;9.00;99.90
34099;DHT22;20374;49.474;10.944;2024-02-23T00:22:44;9.00;99.90
34099;DHT22;20374;49.474;10.944;2024-02-23T00:25:10;9.00;99.90
34099;DHT22;20374;49.474;10.944;2024-02-23T00:27:36;9.00;99.90
34099;DHT22;20374;49.474;10.944;2024-02-23T00:30:02;9.00;99.90
34099;DHT22;20374;49.474;10.944;2024-02-23T00:32:28;8.90;99.90
34099;DHT22;20374;49.474;10.944;2024-02-23T00:34:55;8.90;99.90
34099;DHT22;20374;49.474;10.944;2024-02-23T00:37:21;8.80;99.90
34099;DHT22;20374;49.474;10.944;2024-02-23T00:39:47;8.80;99.90
34099;DHT22;20374;49.474;10.944;2024-02-23T00:42:13;8.70;99.90
34099;DHT22;20374;49.474;10.944;2024-02-23T00:44:39;8.70;99.90
34099;DHT22;20374;49.474;10.944;2024-02-23T00:47:08;8.60;99.90
34099;DHT22;20374;49.474;10.944;2024-02-23T00:49:35;8.70;99.90
34099;DHT22;20374;49.474;10.944;2024-02-23T00:52:01;8.50;99.90
34099;DHT22;20374;49.474;10.944;2024-02-23T00:54:27;8.40;99.90
34099;DHT22;20374;49.474;10.944;2024-02-23T00:56:52;8.40;99.90
34099;DHT22;20374;49.474;10.944;2024-02-23T00:59:18;8.30;99.90
34099;DHT22;20374;49.474;10.944;2024-02-23T01:01:45;8.20;99.90
34099;DHT22;20374;49.474;10.944;2024-02-23T01:04:11;8.20;99.90
34099;DHT22;20374;49.474;10.944;2024-02-23T01:06:37;8.10;99.90
34099;DHT22;20374;49.474;10.944;2024-02-23T01:09:03;8.00;99.90
34099;DHT22;20374;49.474;10.944;2024-02-23T01:11:30;7.90;99.90
34099;DHT22;20374;49.474;10.944;2024-02-23T01:13:56;7.90;99.90
34099;DHT22;20374;49.474;10.944;2024-02-23T01:16:22;7.80;99.90
34099;DHT22;20374;49.474;10.944;2024-02-23T01:18:48;7.80;99.90
34099;DHT22;20374;49.474;10.944;2024-02-23T01:21:14;7.80;99.90
34099;DHT22;20374;49.474;10.944;2024-02-23T01:23:40;7.70;99.90
34099;DHT22;20374;49.474;10.944;2024-02-23T01:26:06;7.70;99.90
34099;DHT22;20374;49.474;10.944;2024-02-23T01:28:32;7.60;99.90
34099;DHT22;20374;49.474;10.944;2024-02-23T01:30:58;7.60;99.90
34099;DHT22;20374;49.474;10.944;2024-02-23T01:33:25;7.60;99.90
34099;DHT22;20374;49.474;10.944;2024-02-23T01:35:50;7.50;99.90
34099;DHT22;20374;49.474;10.944;2024-02-23T01:38:16;7.50;99.90
34099;DHT22;20374;49.474;10.944;2024-02-23T01:40:46;7.40;99.90
34099;DHT22;20374;49.474;10.944;2024-02-23T01:43:13;7.40;99.90
34099;DHT22;20374;49.474;10.944;2024-02-23T01:45:39;7.40;99.90
34099;DHT22;20374;49.474;10.944;2024-02-23T01:48:05;7.30;99.90
34099;DHT22;20374;49.474;10.944;2024-02-23T01:50:32;7.30;99.90
34099;DHT22;20374;49.474;10.944;2024-02-23T01:53:00;7.30;99.90
34099;DHT22;20374;49.474;10.944;2024-02-23T01:55:27;7.20;99.90
34099;DHT22;20374;49.474;10.944;2024-02-23T01:57:53;7.20;99.90
34099;DHT22;20374;49.474;10.944;2024-02-23T02:00:20;7.20;99.90
34099;DHT22;20374;49.474;10.944;2024-02-23T02:02:53;7.10;99.90
34099;DHT22;20374;49.474;10.944;2024-02-23T02:05:20;7.10;99.90
34099;DHT22;20374;49.474;10.944;2024-02-23T02:07:47;7.10;99.90
34099;DHT22;20374;49.474;10.944;2024-02-23T02:10:17;7.10;99.90
34099;DHT22;20374;49.474;10.944;2024-02-23T02:12:43;7.10;99.90
34099;DHT22;20374;49.474;10.944;2024-02-23T02:15:09;7.00;99.90
34099;DHT22;20374;49.474;10.944;2024-02-23T02:17:35;7.00;99.90
34099;DHT22;20374;49.474;10.944;2024-02-23T02:20:02;7.00;99.90
34099;DHT22;20374;49.474;10.944;2024-02-23T02:22:35;7.00;99.90
34099;DHT22;20374;49.474;10.944;2024-02-23T02:25:00;6.90;99.90
34099;DHT22;20374;49.474;10.944;2024-02-23T02:27:26;6.90;99.90
34099;DHT22;20374;49.474;10.944;2024-02-23T02:29:52;6.80;99.90
34099;DHT22;20374;49.474;10.944;2024-02-23T02:32:18;6.80;99.90
34099;DHT22;20374;49.474;10.944;2024-02-23T02:34:44;6.80;99.90
34099;DHT22;20374;49.474;10.944;2024-02-23T02:37:10;6.80;99.90
34099;DHT22;20374;49.474;10.944;2024-02-23T02:39:36;6.80;99.90
34099;DHT22;20374;49.474;10.944;2024-02-23T02:42:02;6.80;99.90
34099;DHT22;20374;49.474;10.944;2024-02-23T02:44:28;6.70;99.90
34099;DHT22;20374;49.474;10.944;2024-02-23T02:46:56;6.70;99.90
34099;DHT22;20374;49.474;10.944;2024-02-23T02:49:23;6.70;99.90
34099;DHT22;20374;49.474;10.944;2024-02-23T02:51:50;6.60;99.90
34099;DHT22;20374;49.474;10.944;2024-02-23T02:54:22;6.60;99.90
34099;DHT22;20374;49.474;10.944;2024-02-23T02:56:48;6.60;99.90
34099;DHT22;20374;49.474;10.944;2024-02-23T02:59:16;6.60;99.90
34099;DHT22;20374;49.474;10.944;2024-02-23T03:01:43;6.60;99.90
34099;DHT22;20374;49.474;10.944;2024-02-23T03:04:09;6.60;99.90
34099;DHT22;20374;49.474;10.944;2024-02-23T03:06:38;6.60;99.90
34099;DHT22;20374;49.474;10.944;2024-02-23T03:09:04;6.60;99.90
34099;DHT22;20374;49.474;10.944;2024-02-23T03:11:30;6.50;99.90
34099;DHT22;20374;49.474;10.944;2024-02-23T03:13:56;6.60;99.90
34099;DHT22;20374;49.474;10.944;2024-02-23T03:16:22;6.50;99.90
34099;DHT22;20374;49.474;10.944;2024-02-23T03:18:56;6.50;99.90
34099;DHT22;20374;49.474;10.944;2024-02-23T03:21:22;6.50;99.90
34099;DHT22;20374;49.474;10.944;2024-02-23T03:23:47;6.40;99.90
34099;DHT22;20374;49.474;10.944;2024-02-23T03:26:14;6.40;99.90
34099;DHT22;20374;49.474;10.944;2024-02-23T03:28:42;6.40;99.90
34099;DHT22;20374;49.474;10.944;2024-02-23T03:31:08;6.40;99.90
34099;DHT22;20374;49.474;10.944;2024-02-23T03:33:34;6.30;99.90
34099;DHT22;20374;49.474;10.944;2024-02-23T03:36:00;6.40;99.90
34099;DHT22;20374;49.474;10.944;2024-02-23T03:38:26;6.30;99.90
34099;DHT22;20374;49.474;10.944;2024-02-23T03:40:52;6.30;99.90
34099;DHT22;20374;49.474;10.944;2024-02-23T03:43:18;6.30;99.90
34099;DHT22;20374;49.474;10.944;2024-02-23T03:45:44;6.30;99.90
34099;DHT22;20374;49.474;10.944;2024-02-23T03:48:09;6.30;99.90
34099;DHT22;20374;49.474;10.944;2024-02-23T03:50:35;6.30;99.90
34099;DHT22;20374;49.474;10.944;2024-02-23T03:53:01;6.20;99.90
34099;DHT22;20374;49.474;10.944;2024-02-23T03:55:28;6.40;99.90
34099;DHT22;20374;49.474;10.944;2024-02-23T03:57:54;6.20;99.90
34099;DHT22;20374;49.474;10.944;2024-02-23T04:00:20;6.20;99.90
34099;DHT22;20374;49.474;10.944;2024-02-23T04:02:49;6.20;99.90
34099;DHT22;20374;49.474;10.944;2024-02-23T04:05:15;6.10;99.90
34099;DHT22;20374;49.474;10.944;2024-02-23T04:07:41;6.10;99.90
34099;DHT22;20374;49.474;10.944;2024-02-23T04:10:07;6.10;99.90
34099;DHT22;20374;49.474;10.944;2024-02-23T04:12:33;6.10;99.90
34099;DHT22;20374;49.474;10.944;2024-02-23T04:14:59;6.10;99.90
34099;DHT22;20374;49.474;10.944;2024-02-23T04:17:25;6.00;99.90
34099;DHT22;20374;49.474;10.944;2024-02-23T04:19:50;6.00;99.90
34099;DHT22;20374;49.474;10.944;2024-02-23T04:22:16;6.00;99.90
34099;DHT22;20374;49.474;10.944;2024-02-23T04:24:42;6.00;99.90
34099;DHT22;20374;49.474;10.944;2024-02-23T04:27:08;6.00;99.90
34099;DHT22;20374;49.474;10.944;2024-02-23T04:29:34;6.00;99.90
34099;DHT22;20374;49.474;10.944;2024-02-23T04:32:00;6.00;99.90
34099;DHT22;20374;49.474;10.944;2024-02-23T04:34:27;6.00;99.90
34099;DHT22;20374;49.474;10.944;2024-02-23T04:36:54;6.00;99.90
34099;DHT22;20374;49.474;10.944;2024-02-23T04:39:20;6.00;99.90
34099;DHT22;20374;49.474;10.944;2024-02-23T04:41:46;5.90;99.90
34099;DHT22;20374;49.474;10.944;2024-02-23T04:44:12;5.90;99.90
34099;DHT22;20374;49.474;10.944;2024-02-23T04:46:38;5.90;99.90
34099;DHT22;20374;49.474;10.944;2024-02-23T04:49:04;5.80;99.90
34099;DHT22;20374;49.474;10.944;2024-02-23T04:51:30;5.90;99.90
34099;DHT22;20374;49.474;10.944;2024-02-23T04:53:56;5.90;99.90
34099;DHT22;20374;49.474;10.944;2024-02-23T04:56:22;5.80;99.90
34099;DHT22;20374;49.474;10.944;2024-02-23T04:58:48;5.80;99.90
34099;DHT22;20374;49.474;10.944;2024-02-23T05:01:14;5.70;99.90
34099;DHT22;20374;49.474;10.944;2024-02-23T05:03:40;5.70;99.90
34099;DHT22;20374;49.474;10.944;2024-02-23T05:06:06;5.70;99.90
34099;DHT22;20374;49.474;10.944;2024-02-23T05:08:32;5.70;99.90
34099;DHT22;20374;49.474;10.944;2024-02-23T05:10:58;5.70;99.90
34099;DHT22;20374;49.474;10.944;2024-02-23T05:13:24;5.70;99.90
34099;DHT22;20374;49.474;10.944;2024-02-23T05:15:50;5.70;99.90
34099;DHT22;20374;49.474;10.944;2024-02-23T05:18:16;5.60;99.90
34099;DHT22;20374;49.474;10.944;2024-02-23T05:20:42;5.60;99.90
34099;DHT22;20374;49.474;10.944;2024-02-23T05:23:07;5.60;99.90
34099;DHT22;20374;49.474;10.944;2024-02-23T05:25:34;5.60;99.90
34099;DHT22;20374;49.474;10.944;2024-02-23T05:28:00;5.50;99.90
34099;DHT22;20374;49.474;10.944;2024-02-23T05:30:26;5.60;99.90
34099;DHT22;20374;49.474;10.944;2024-02-23T05:32:57;5.50;99.90
34099;DHT22;20374;49.474;10.944;2024-02-23T05:35:24;5.40;99.90
34099;DHT22;20374;49.474;10.944;2024-02-23T05:37:50;5.40;99.90
34099;DHT22;20374;49.474;10.944;2024-02-23T05:40:16;5.40;99.90
34099;DHT22;20374;49.474;10.944;2024-02-23T05:42:42;5.40;99.90
34099;DHT22;20374;49.474;10.944;2024-02-23T05:45:08;5.30;99.90
34099;DHT22;20374;49.474;10.944;2024-02-23T05:47:36;5.40;99.90
34099;DHT22;20374;49.474;10.944;2024-02-23T05:50:05;5.40;99.90
34099;DHT22;20374;49.474;10.944;2024-02-23T05:52:32;5.40;99.90
34099;DHT22;20374;49.474;10.944;2024-02-23T05:54:58;5.30;99.90
34099;DHT22;20374;49.474;10.944;2024-02-23T05:57:28;5.30;99.90
34099;DHT22;20374;49.474;10.944;2024-02-23T05:59:54;5.30;99.90
34099;DHT22;20374;49.474;10.944;2024-02-23T06:02:23;5.30;99.90
34099;DHT22;20374;49.474;10.944;2024-02-23T06:04:49;5.30;99.90
34099;DHT22;20374;49.474;10.944;2024-02-23T06:07:15;5.30;99.90
34099;DHT22;20374;49.474;10.944;2024-02-23T06:09:42;5.20;99.90
34099;DHT22;20374;49.474;10.944;2024-02-23T06:12:08;5.20;99.90
34099;DHT22;20374;49.474;10.944;2024-02-23T06:14:34;5.20;99.90
34099;DHT22;20374;49.474;10.944;2024-02-23T06:17:00;5.20;99.90
34099;DHT22;20374;49.474;10.944;2024-02-23T06:19:26;5.20;99.90
34099;DHT22;20374;49.474;10.944;2024-02-23T06:21:52;5.20;99.90
34099;DHT22;20374;49.474;10.944;2024-02-23T06:24:18;5.20;99.90
34099;DHT22;20374;49.474;10.944;2024-02-23T06:26:45;5.30;99.90
34099;DHT22;20374;49.474;10.944;2024-02-23T06:29:12;5.30;99.90
34099;DHT22;20374;49.474;10.944;2024-02-23T06:31:39;5.30;99.90
34099;DHT22;20374;49.474;10.944;2024-02-23T06:34:05;5.30;99.90
34099;DHT22;20374;49.474;10.944;2024-02-23T06:36:31;5.30;99.90
34099;DHT22;20374;49.474;10.944;2024-02-23T06:38:57;5.30;99.90
34099;DHT22;20374;49.474;10.944;2024-02-23T06:41:23;5.30;99.90
34099;DHT22;20374;49.474;10.944;2024-02-23T06:43:49;5.30;99.90
34099;DHT22;20374;49.474;10.944;2024-02-23T06:46:15;5.20;99.90
34099;DHT22;20374;49.474;10.944;2024-02-23T06:48:45;5.20;99.90
34099;DHT22;20374;49.474;10.944;2024-02-23T06:51:11;5.20;99.90
34099;DHT22;20374;49.474;10.944;2024-02-23T06:53:37;5.20;99.90
34099;DHT22;20374;49.474;10.944;2024-02-23T06:56:04;5.10;99.90
34099;DHT22;20374;49.474;10.944;2024-02-23T06:58:29;5.10;99.90
34099;DHT22;20374;49.474;10.944;2024-02-23T07:00:55;5.20;99.90
34099;DHT22;20374;49.474;10.944;2024-02-23T07:03:22;5.20;99.90
34099;DHT22;20374;49.474;10.944;2024-02-23T07:05:48;5.30;99.90
34099;DHT22;20374;49.474;10.944;2024-02-23T07:08:15;5.30;99.90
34099;DHT22;20374;49.474;10.944;2024-02-23T07:10:41;5.30;99.90
34099;DHT22;20374;49.474;10.944;2024-02-23T07:13:07;5.30;99.90
34099;DHT22;20374;49.474;10.944;2024-02-23T07:15:34;5.30;99.90
34099;DHT22;20374;49.474;10.944;2024-02-23T07:18:01;5.30;99.90
34099;DHT22;20374;49.474;10.944;2024-02-23T07:20:27;5.40;99.90
34099;DHT22;20374;49.474;10.944;2024-02-23T07:22:53;5.50;99.90
34099;DHT22;20374;49.474;10.944;2024-02-23T07:25:20;5.50;99.90
34099;DHT22;20374;49.474;10.944;2024-02-23T07:27:49;5.50;99.90
34099;DHT22;20374;49.474;10.944;2024-02-23T07:30:15;5.50;99.90
34099;DHT22;20374;49.474;10.944;2024-02-23T07:32:42;5.50;99.90
34099;DHT22;20374;49.474;10.944;2024-02-23T07:35:09;5.60;99.90
34099;DHT22;20374;49.474;10.944;2024-02-23T07:37:37;5.60;99.90
34099;DHT22;20374;49.474;10.944;2024-02-23T07:40:04;5.60;99.90
34099;DHT22;20374;49.474;10.944;2024-02-23T07:42:31;5.70;99.90
34099;DHT22;20374;49.474;10.944;2024-02-23T07:44:57;5.60;99.90
34099;DHT22;20374;49.474;10.944;2024-02-23T07:47:23;5.60;99.90
34099;DHT22;20374;49.474;10.944;2024-02-23T07:49:50;5.60;99.90
34099;DHT22;20374;49.474;10.944;2024-02-23T07:52:18;5.70;99.90
34099;DHT22;20374;49.474;10.944;2024-02-23T07:54:43;5.70;99.90
34099;DHT22;20374;49.474;10.944;2024-02-23T07:57:09;5.60;99.90
34099;DHT22;20374;49.474;10.944;2024-02-23T07:59:35;5.60;99.90
34099;DHT22;20374;49.474;10.944;2024-02-23T08:02:01;5.60;99.90
34099;DHT22;20374;49.474;10.944;2024-02-23T08:04:27;5.60;99.90
34099;DHT22;20374;49.474;10.944;2024-02-23T08:06:53;5.60;99.90
34099;DHT22;20374;49.474;10.944;2024-02-23T08:09:19;5.70;99.90
34099;DHT22;20374;49.474;10.944;2024-02-23T08:11:47;5.70;99.90
34099;DHT22;20374;49.474;10.944;2024-02-23T08:14:13;5.70;99.90
34099;DHT22;20374;49.474;10.944;2024-02-23T08:16:39;5.70;99.90
34099;DHT22;20374;49.474;10.944;2024-02-23T08:19:05;5.80;99.90
34099;DHT22;20374;49.474;10.944;2024-02-23T08:21:31;5.80;99.90
34099;DHT22;20374;49.474;10.944;2024-02-23T08:23:57;5.80;99.90
34099;DHT22;20374;49.474;10.944;2024-02-23T08:26:23;5.90;99.90
34099;DHT22;20374;49.474;10.944;2024-02-23T08:28:48;6.00;99.90
34099;DHT22;20374;49.474;10.944;2024-02-23T08:31:14;6.00;99.90
34099;DHT22;20374;49.474;10.944;2024-02-23T08:33:43;6.10;99.90
34099;DHT22;20374;49.474;10.944;2024-02-23T08:36:10;6.10;99.90
34099;DHT22;20374;49.474;10.944;2024-02-23T08:38:36;6.20;99.90
34099;DHT22;20374;49.474;10.944;2024-02-23T08:41:04;6.40;99.90
34099;DHT22;20374;49.474;10.944;2024-02-23T08:43:30;6.50;99.90
34099;DHT22;20374;49.474;10.944;2024-02-23T08:45:56;6.50;99.90
34099;DHT22;20374;49.474;10.944;2024-02-23T08:48:21;6.50;99.90
34099;DHT22;20374;49.474;10.944;2024-02-23T08:50:48;6.50;99.90
34099;DHT22;20374;49.474;10.944;2024-02-23T08:53:14;6.60;99.90
34099;DHT22;20374;49.474;10.944;2024-02-23T08:55:40;6.50;99.90
34099;DHT22;20374;49.474;10.944;2024-02-23T08:58:06;6.50;99.90
34099;DHT22;20374;49.474;10.944;2024-02-23T09:00:32;6.50;99.90
34099;DHT22;20374;49.474;10.944;2024-02-23T09:02:58;6.50;99.90
34099;DHT22;20374;49.474;10.944;2024-02-23T09:05:24;6.50;99.90
34099;DHT22;20374;49.474;10.944;2024-02-23T09:07:50;6.50;99.90
34099;DHT22;20374;49.474;10.944;2024-02-23T09:10:16;6.40;99.90
34099;DHT22;20374;49.474;10.944;2024-02-23T09:12:44;6.40;99.90
34099;DHT22;20374;49.474;10.944;2024-02-23T09:15:10;6.40;99.90
34099;DHT22;20374;49.474;10.944;2024-02-23T09:17:36;6.50;99.90
34099;DHT22;20374;49.474;10.944;2024-02-23T09:20:02;6.50;99.90
34099;DHT22;20374;49.474;10.944;2024-02-23T09:22:28;6.50;99.90
34099;DHT22;20374;49.474;10.944;2024-02-23T09:24:54;6.50;99.90
34099;DHT22;20374;49.474;10.944;2024-02-23T09:27:22;6.60;99.90
34099;DHT22;20374;49.474;10.944;2024-02-23T09:29:47;6.70;99.90
34099;DHT22;20374;49.474;10.944;2024-02-23T09:32:13;6.70;99.90
34099;DHT22;20374;49.474;10.944;2024-02-23T09:34:39;6.70;99.90
34099;DHT22;20374;49.474;10.944;2024-02-23T09:37:05;6.60;99.90
34099;DHT22;20374;49.474;10.944;2024-02-23T09:39:31;6.60;99.90
34099;DHT22;20374;49.474;10.944;2024-02-23T09:41:57;6.50;99.90
34099;DHT22;20374;49.474;10.944;2024-02-23T09:44:23;6.50;99.90
34099;DHT22;20374;49.474;10.944;2024-02-23T09:46:49;6.50;99.90
34099;DHT22;20374;49.474;10.944;2024-02-23T09:49:15;6.50;99.90
34099;DHT22;20374;49.474;10.944;2024-02-23T09:51:43;6.60;99.90
34099;DHT22;20374;49.474;10.944;2024-02-23T09:54:09;6.70;99.90
34099;DHT22;20374;49.474;10.944;2024-02-23T09:56:36;6.60;99.90
34099;DHT22;20374;49.474;10.944;2024-02-23T09:59:03;6.70;99.90
34099;DHT22;20374;49.474;10.944;2024-02-23T10:01:31;6.60;99.90
34099;DHT22;20374;49.474;10.944;2024-02-23T10:04:03;6.60;99.90
34099;DHT22;20374;49.474;10.944;2024-02-23T10:06:30;6.80;99.90
34099;DHT22;20374;49.474;10.944;2024-02-23T10:08:56;6.80;99.90
34099;DHT22;20374;49.474;10.944;2024-02-23T10:11:23;6.70;99.90
34099;DHT22;20374;49.474;10.944;2024-02-23T10:13:49;6.70;99.90
34099;DHT22;20374;49.474;10.944;2024-02-23T10:16:19;6.60;99.90
34099;DHT22;20374;49.474;10.944;2024-02-23T10:18:49;6.60;99.90
34099;DHT22;20374;49.474;10.944;2024-02-23T10:21:15;6.60;99.90
34099;DHT22;20374;49.474;10.944;2024-02-23T10:23:44;6.70;99.90
34099;DHT22;20374;49.474;10.944;2024-02-23T10:26:10;6.80;99.90
34099;DHT22;20374;49.474;10.944;2024-02-23T10:28:40;6.70;99.90
34099;DHT22;20374;49.474;10.944;2024-02-23T10:31:06;6.60;99.90
34099;DHT22;20374;49.474;10.944;2024-02-23T10:33:36;6.70;99.90
34099;DHT22;20374;49.474;10.944;2024-02-23T10:36:05;6.70;99.90
34099;DHT22;20374;49.474;10.944;2024-02-23T10:38:43;6.70;99.90
34099;DHT22;20374;49.474;10.944;2024-02-23T10:41:13;6.70;99.90
34099;DHT22;20374;49.474;10.944;2024-02-23T10:43:47;6.70;99.90
34099;DHT22;20374;49.474;10.944;2024-02-23T10:46:14;6.70;99.90
34099;DHT22;20374;49.474;10.944;2024-02-23T10:48:44;6.60;99.90
34099;DHT22;20374;49.474;10.944;2024-02-23T10:51:13;6.70;99.90
34099;DHT22;20374;49.474;10.944;2024-02-23T10:53:44;6.80;99.90
34099;DHT22;20374;49.474;10.944;2024-02-23T10:56:12;6.80;99.90
34099;DHT22;20374;49.474;10.944;2024-02-23T10:58:37;6.80;99.90
34099;DHT22;20374;49.474;10.944;2024-02-23T11:01:06;6.80;99.90
34099;DHT22;20374;49.474;10.944;2024-02-23T11:03:35;6.80;99.90
34099;DHT22;20374;49.474;10.944;2024-02-23T11:06:02;6.70;99.90
34099;DHT22;20374;49.474;10.944;2024-02-23T11:11:16;6.70;99.90
34099;DHT22;20374;49.474;10.944;2024-02-23T11:13:46;6.80;99.90
34099;DHT22;20374;49.474;10.944;2024-02-23T11:16:22;6.80;99.90
34099;DHT22;20374;49.474;10.944;2024-02-23T11:19:04;6.80;99.90
34099;DHT22;20374;49.474;10.944;2024-02-23T11:21:39;6.80;99.90
34099;DHT22;20374;49.474;10.944;2024-02-23T11:24:05;6.90;99.90
34099;DHT22;20374;49.474;10.944;2024-02-23T11:26:32;7.00;99.90
34099;DHT22;20374;49.474;10.944;2024-02-23T11:29:10;7.00;99.90
34099;DHT22;20374;49.474;10.944;2024-02-23T11:31:44;7.00;99.90
34099;DHT22;20374;49.474;10.944;2024-02-23T11:34:11;7.00;99.90
34099;DHT22;20374;49.474;10.944;2024-02-23T11:36:38;7.10;99.90
34099;DHT22;20374;49.474;10.944;2024-02-23T11:39:04;7.10;99.90
34099;DHT22;20374;49.474;10.944;2024-02-23T11:41:31;7.20;99.90
34099;DHT22;20374;49.474;10.944;2024-02-23T11:43:57;7.20;99.90
34099;DHT22;20374;49.474;10.944;2024-02-23T11:46:26;7.20;99.90
34099;DHT22;20374;49.474;10.944;2024-02-23T11:48:52;7.20;99.90
34099;DHT22;20374;49.474;10.944;2024-02-23T11:51:21;7.20;99.90
34099;DHT22;20374;49.474;10.944;2024-02-23T11:53:49;7.30;99.90
34099;DHT22;20374;49.474;10.944;2024-02-23T11:56:16;7.40;99.90
34099;DHT22;20374;49.474;10.944;2024-02-23T11:58:42;7.40;99.90
34099;DHT22;20374;49.474;10.944;2024-02-23T12:01:08;7.30;99.90
34099;DHT22;20374;49.474;10.944;2024-02-23T12:03:34;7.30;99.90
34099;DHT22;20374;49.474;10.944;2024-02-23T12:06:07;7.20;99.90
34099;DHT22;20374;49.474;10.944;2024-02-23T12:08:33;7.20;99.90
34099;DHT22;20374;49.474;10.944;2024-02-23T12:11:07;7.30;99.90
34099;DHT22;20374;49.474;10.944;2024-02-23T12:13:35;7.30;99.90
34099;DHT22;20374;49.474;10.944;2024-02-23T12:16:08;7.30;99.90
34099;DHT22;20374;49.474;10.944;2024-02-23T12:18:35;7.30;99.90
34099;DHT22;20374;49.474;10.944;2024-02-23T12:21:04;7.30;99.90
34099;DHT22;20374;49.474;10.944;2024-02-23T12:23:40;7.30;99.90
34099;DHT22;20374;49.474;10.944;2024-02-23T12:26:07;7.30;99.90
34099;DHT22;20374;49.474;10.944;2024-02-23T12:28:33;7.40;99.90
34099;DHT22;20374;49.474;10.944;2024-02-23T12:31:03;7.40;99.90
34099;DHT22;20374;49.474;10.944;2024-02-23T12:33:36;7.40;99.90
34099;DHT22;20374;49.474;10.944;2024-02-23T12:36:07;7.30;99.90
34099;DHT22;20374;49.474;10.944;2024-02-23T12:38:34;7.40;99.90
34099;DHT22;20374;49.474;10.944;2024-02-23T12:41:01;7.40;99.90
34099;DHT22;20374;49.474;10.944;2024-02-23T12:43:28;7.40;99.90
34099;DHT22;20374;49.474;10.944;2024-02-23T12:45:54;7.40;99.90
34099;DHT22;20374;49.474;10.944;2024-02-23T12:48:21;7.30;99.90
34099;DHT22;20374;49.474;10.944;2024-02-23T12:50:47;7.30;99.90
34099;DHT22;20374;49.474;10.944;2024-02-23T12:53:40;7.20;99.90
34099;DHT22;20374;49.474;10.944;2024-02-23T12:56:11;7.30;99.90
34099;DHT22;20374;49.474;10.944;2024-02-23T12:58:40;7.40;99.90
34099;DHT22;20374;49.474;10.944;2024-02-23T13:01:07;7.40;99.90
34099;DHT22;20374;49.474;10.944;2024-02-23T13:03:37;7.50;99.90
34099;DHT22;20374;49.474;10.944;2024-02-23T13:06:04;7.40;99.90
34099;DHT22;20374;49.474;10.944;2024-02-23T13:08:30;7.40;99.70
34099;DHT22;20374;49.474;10.944;2024-02-23T13:10:57;7.40;99.90
34099;DHT22;20374;49.474;10.944;2024-02-23T13:13:23;7.40;99.90
34099;DHT22;20374;49.474;10.944;2024-02-23T13:15:52;7.40;99.90
34099;DHT22;20374;49.474;10.944;2024-02-23T13:18:19;7.40;99.90
34099;DHT22;20374;49.474;10.944;2024-02-23T13:20:45;7.50;99.60
34099;DHT22;20374;49.474;10.944;2024-02-23T13:23:12;7.50;99.50
34099;DHT22;20374;49.474;10.944;2024-02-23T13:25:39;7.50;99.80
34099;DHT22;20374;49.474;10.944;2024-02-23T13:28:07;7.50;99.80
34099;DHT22;20374;49.474;10.944;2024-02-23T13:30:33;7.50;99.90
34099;DHT22;20374;49.474;10.944;2024-02-23T13:32:59;7.60;99.90
34099;DHT22;20374;49.474;10.944;2024-02-23T13:35:26;7.60;99.90
34099;DHT22;20374;49.474;10.944;2024-02-23T13:37:52;7.60;99.90
34099;DHT22;20374;49.474;10.944;2024-02-23T13:40:19;7.60;99.90
34099;DHT22;20374;49.474;10.944;2024-02-23T13:42:45;7.50;99.90
34099;DHT22;20374;49.474;10.944;2024-02-23T13:45:15;7.40;99.90
34099;DHT22;20374;49.474;10.944;2024-02-23T13:47:43;7.50;99.70
34099;DHT22;20374;49.474;10.944;2024-02-23T13:50:10;7.40;99.90
34099;DHT22;20374;49.474;10.944;2024-02-23T13:52:37;7.40;99.80
34099;DHT22;20374;49.474;10.944;2024-02-23T13:55:03;7.50;99.90
34099;DHT22;20374;49.474;10.944;2024-02-23T13:57:29;7.40;99.80
34099;DHT22;20374;49.474;10.944;2024-02-23T13:59:55;7.40;99.80
34099;DHT22;20374;49.474;10.944;2024-02-23T14:02:27;7.40;99.90
34099;DHT22;20374;49.474;10.944;2024-02-23T14:05:01;7.40;99.90
34099;DHT22;20374;49.474;10.944;2024-02-23T14:07:31;7.40;99.90
34099;DHT22;20374;49.474;10.944;2024-02-23T14:09:56;7.40;99.90
34099;DHT22;20374;49.474;10.944;2024-02-23T14:12:22;7.40;99.90
34099;DHT22;20374;49.474;10.944;2024-02-23T14:14:51;7.40;99.90
34099;DHT22;20374;49.474;10.944;2024-02-23T14:17:17;7.40;99.90
34099;DHT22;20374;49.474;10.944;2024-02-23T14:19:43;7.30;99.90
34099;DHT22;20374;49.474;10.944;2024-02-23T14:22:09;7.30;99.90
34099;DHT22;20374;49.474;10.944;2024-02-23T14:24:36;7.30;99.90
34099;DHT22;20374;49.474;10.944;2024-02-23T14:27:01;7.30;99.90
34099;DHT22;20374;49.474;10.944;2024-02-23T14:29:27;7.40;99.90
34099;DHT22;20374;49.474;10.944;2024-02-23T14:31:53;7.40;99.90
34099;DHT22;20374;49.474;10.944;2024-02-23T14:34:19;7.40;99.90
34099;DHT22;20374;49.474;10.944;2024-02-23T14:36:49;7.40;99.90
34099;DHT22;20374;49.474;10.944;2024-02-23T14:39:15;7.40;99.90
34099;DHT22;20374;49.474;10.944;2024-02-23T14:41:41;7.40;99.90
34099;DHT22;20374;49.474;10.944;2024-02-23T14:44:08;7.30;99.90
34099;DHT22;20374;49.474;10.944;2024-02-23T14:46:34;7.30;99.90
34099;DHT22;20374;49.474;10.944;2024-02-23T14:48:59;7.30;99.90
34099;DHT22;20374;49.474;10.944;2024-02-23T14:51:25;7.20;99.90
34099;DHT22;20374;49.474;10.944;2024-02-23T14:53:51;7.30;99.90
34099;DHT22;20374;49.474;10.944;2024-02-23T14:56:17;7.20;99.90
34099;DHT22;20374;49.474;10.944;2024-02-23T14:58:43;7.20;99.90
34099;DHT22;20374;49.474;10.944;2024-02-23T15:01:09;7.10;99.90
34099;DHT22;20374;49.474;10.944;2024-02-23T15:03:36;7.10;99.90
34099;DHT22;20374;49.474;10.944;2024-02-23T15:06:21;7.20;99.90
34099;DHT22;20374;49.474;10.944;2024-02-23T15:08:48;7.20;99.90
34099;DHT22;20374;49.474;10.944;2024-02-23T15:11:14;7.20;99.90
34099;DHT22;20374;49.474;10.944;2024-02-23T15:13:40;7.10;99.90
34099;DHT22;20374;49.474;10.944;2024-02-23T15:16:06;7.10;99.90
34099;DHT22;20374;49.474;10.944;2024-02-23T15:18:32;7.10;99.90
34099;DHT22;20374;49.474;10.944;2024-02-23T15:20:58;7.10;99.90
34099;DHT22;20374;49.474;10.944;2024-02-23T15:23:27;7.10;99.90
34099;DHT22;20374;49.474;10.944;2024-02-23T15:25:53;7.00;99.90
34099;DHT22;20374;49.474;10.944;2024-02-23T15:28:19;7.00;99.90
34099;DHT22;20374;49.474;10.944;2024-02-23T15:30:51;6.90;99.90